sensor_id;sensor_type;location;lat;lon;timestamp;P1;durP1;ratioP1;P2;durP2;ratioP2
32108;SDS011;18624;50.042;8.436;2023-04-08T00:00:44;4.15;;;3.80;;
32108;SDS011;18624;50.042;8.436;2023-04-08T00:03:11;6.28;;;5.65;;
32108;SDS011;18624;50.042;8.436;2023-04-08T00:05:37;6.15;;;5.22;;
32108;SDS011;18624;50.042;8.436;2023-04-08T00:08:04;5.20;;;4.70;;
32108;SDS011;18624;50.042;8.436;2023-04-08T00:10:31;6.50;;;5.88;;
32108;SDS011;18624;50.042;8.436;2023-04-08T00:12:58;5.82;;;4.88;;
32108;SDS011;18624;50.042;8.436;2023-04-08T00:15:26;5.88;;;5.28;;
32108;SDS011;18624;50.042;8.436;2023-04-08T00:17:52;5.15;;;4.75;;
32108;SDS011;18624;50.042;8.436;2023-04-08T00:20:22;5.65;;;5.15;;
32108;SDS011;18624;50.042;8.436;2023-04-08T00:22:49;6.40;;;5.53;;
32108;SDS011;18624;50.042;8.436;2023-04-08T00:25:16;6.63;;;4.68;;
32108;SDS011;18624;50.042;8.436;2023-04-08T00:27:42;5.28;;;4.82;;
32108;SDS011;18624;50.042;8.436;2023-04-08T00:30:09;5.30;;;4.80;;
32108;SDS011;18624;50.042;8.436;2023-04-08T00:32:36;6.03;;;5.10;;
32108;SDS011;18624;50.042;8.436;2023-04-08T00:35:03;5.28;;;4.78;;
32108;SDS011;18624;50.042;8.436;2023-04-08T00:37:30;5.65;;;5.15;;
32108;SDS011;18624;50.042;8.436;2023-04-08T00:39:56;5.53;;;4.78;;
32108;SDS011;18624;50.042;8.436;2023-04-08T00:42:23;5.63;;;5.07;;
32108;SDS011;18624;50.042;8.436;2023-04-08T00:44:49;5.85;;;5.35;;
32108;SDS011;18624;50.042;8.436;2023-04-08T00:47:16;5.13;;;4.65;;
32108;SDS011;18624;50.042;8.436;2023-04-08T00:49:43;5.60;;;5.10;;
32108;SDS011;18624;50.042;8.436;2023-04-08T00:52:11;6.05;;;5.43;;
32108;SDS011;18624;50.042;8.436;2023-04-08T00:54:38;4.85;;;4.45;;
32108;SDS011;18624;50.042;8.436;2023-04-08T00:57:04;5.10;;;4.60;;
32108;SDS011;18624;50.042;8.436;2023-04-08T00:59:31;5.28;;;4.78;;
32108;SDS011;18624;50.042;8.436;2023-04-08T01:02:17;6.07;;;5.47;;
32108;SDS011;18624;50.042;8.436;2023-04-08T01:05:04;5.32;;;4.82;;
32108;SDS011;18624;50.042;8.436;2023-04-08T01:07:35;6.90;;;6.30;;
32108;SDS011;18624;50.042;8.436;2023-04-08T01:10:07;6.05;;;5.32;;
32108;SDS011;18624;50.042;8.436;2023-04-08T01:12:41;5.93;;;5.30;;
32108;SDS011;18624;50.042;8.436;2023-04-08T01:15:13;5.38;;;4.88;;
32108;SDS011;18624;50.042;8.436;2023-04-08T01:17:40;6.57;;;5.63;;
32108;SDS011;18624;50.042;8.436;2023-04-08T01:20:09;6.68;;;5.57;;
32108;SDS011;18624;50.042;8.436;2023-04-08T01:25:25;6.60;;;5.97;;
32108;SDS011;18624;50.042;8.436;2023-04-08T01:27:55;7.00;;;6.38;;
32108;SDS011;18624;50.042;8.436;2023-04-08T01:30:25;6.47;;;5.88;;
32108;SDS011;18624;50.042;8.436;2023-04-08T01:32:55;5.72;;;5.22;;
32108;SDS011;18624;50.042;8.436;2023-04-08T01:35:25;6.70;;;6.10;;
32108;SDS011;18624;50.042;8.436;2023-04-08T01:37:52;6.00;;;5.40;;
32108;SDS011;18624;50.042;8.436;2023-04-08T01:40:21;6.13;;;5.63;;
32108;SDS011;18624;50.042;8.436;2023-04-08T01:42:47;5.75;;;5.25;;
32108;SDS011;18624;50.042;8.436;2023-04-08T01:45:16;5.68;;;5.18;;
32108;SDS011;18624;50.042;8.436;2023-04-08T01:47:46;6.82;;;6.22;;
32108;SDS011;18624;50.042;8.436;2023-04-08T01:50:15;6.57;;;5.85;;
32108;SDS011;18624;50.042;8.436;2023-04-08T01:52:45;6.15;;;5.55;;
32108;SDS011;18624;50.042;8.436;2023-04-08T01:55:14;6.25;;;5.65;;
32108;SDS011;18624;50.042;8.436;2023-04-08T01:57:42;6.88;;;6.30;;
32108;SDS011;18624;50.042;8.436;2023-04-08T02:00:13;6.55;;;5.85;;
32108;SDS011;18624;50.042;8.436;2023-04-08T02:02:46;6.20;;;5.68;;
32108;SDS011;18624;50.042;8.436;2023-04-08T02:05:14;6.25;;;5.65;;
32108;SDS011;18624;50.042;8.436;2023-04-08T02:07:41;5.78;;;5.28;;
32108;SDS011;18624;50.042;8.436;2023-04-08T02:10:07;6.43;;;5.82;;
32108;SDS011;18624;50.042;8.436;2023-04-08T02:12:34;6.28;;;5.68;;
32108;SDS011;18624;50.042;8.436;2023-04-08T02:15:01;6.60;;;5.65;;
32108;SDS011;18624;50.042;8.436;2023-04-08T02:20:19;6.45;;;5.80;;
32108;SDS011;18624;50.042;8.436;2023-04-08T02:22:52;6.03;;;5.43;;
32108;SDS011;18624;50.042;8.436;2023-04-08T02:25:24;5.70;;;5.20;;
32108;SDS011;18624;50.042;8.436;2023-04-08T02:27:54;6.57;;;5.97;;
32108;SDS011;18624;50.042;8.436;2023-04-08T02:30:22;6.00;;;5.40;;
32108;SDS011;18624;50.042;8.436;2023-04-08T02:32:53;6.80;;;6.13;;
32108;SDS011;18624;50.042;8.436;2023-04-08T02:35:21;6.05;;;5.45;;
32108;SDS011;18624;50.042;8.436;2023-04-08T02:37:48;6.50;;;5.80;;
32108;SDS011;18624;50.042;8.436;2023-04-08T02:40:22;6.07;;;5.50;;
32108;SDS011;18624;50.042;8.436;2023-04-08T02:42:51;8.93;;;6.63;;
32108;SDS011;18624;50.042;8.436;2023-04-08T02:45:17;6.40;;;5.45;;
32108;SDS011;18624;50.042;8.436;2023-04-08T02:47:44;6.22;;;5.63;;
32108;SDS011;18624;50.042;8.436;2023-04-08T02:50:11;6.57;;;5.80;;
32108;SDS011;18624;50.042;8.436;2023-04-08T02:52:37;6.45;;;5.88;;
32108;SDS011;18624;50.042;8.436;2023-04-08T02:55:04;7.07;;;6.35;;
32108;SDS011;18624;50.042;8.436;2023-04-08T02:57:39;6.75;;;5.50;;
32108;SDS011;18624;50.042;8.436;2023-04-08T03:00:06;6.82;;;6.13;;
32108;SDS011;18624;50.042;8.436;2023-04-08T03:02:33;7.40;;;6.28;;
32108;SDS011;18624;50.042;8.436;2023-04-08T03:05:01;7.63;;;6.75;;
32108;SDS011;18624;50.042;8.436;2023-04-08T03:07:28;7.45;;;6.55;;
32108;SDS011;18624;50.042;8.436;2023-04-08T03:09:55;7.78;;;6.65;;
32108;SDS011;18624;50.042;8.436;2023-04-08T03:12:21;7.40;;;6.60;;
32108;SDS011;18624;50.042;8.436;2023-04-08T03:14:48;8.30;;;6.63;;
32108;SDS011;18624;50.042;8.436;2023-04-08T03:17:15;8.07;;;7.22;;
32108;SDS011;18624;50.042;8.436;2023-04-08T03:19:42;7.68;;;6.72;;
32108;SDS011;18624;50.042;8.436;2023-04-08T03:22:08;7.72;;;6.60;;
32108;SDS011;18624;50.042;8.436;2023-04-08T03:24:35;7.75;;;6.57;;
32108;SDS011;18624;50.042;8.436;2023-04-08T03:27:02;8.95;;;7.38;;
32108;SDS011;18624;50.042;8.436;2023-04-08T03:29:29;9.73;;;7.72;;
32108;SDS011;18624;50.042;8.436;2023-04-08T03:31:55;8.63;;;7.72;;
32108;SDS011;18624;50.042;8.436;2023-04-08T03:34:22;10.43;;;8.32;;
32108;SDS011;18624;50.042;8.436;2023-04-08T03:36:48;11.05;;;7.72;;
32108;SDS011;18624;50.042;8.436;2023-04-08T03:39:15;10.20;;;7.55;;
32108;SDS011;18624;50.042;8.436;2023-04-08T03:41:42;9.57;;;8.10;;
32108;SDS011;18624;50.042;8.436;2023-04-08T03:44:08;10.57;;;7.63;;
32108;SDS011;18624;50.042;8.436;2023-04-08T03:46:35;8.82;;;7.68;;
32108;SDS011;18624;50.042;8.436;2023-04-08T03:49:01;9.77;;;7.85;;
32108;SDS011;18624;50.042;8.436;2023-04-08T03:51:28;9.45;;;7.65;;
32108;SDS011;18624;50.042;8.436;2023-04-08T03:53:54;7.93;;;6.80;;
32108;SDS011;18624;50.042;8.436;2023-04-08T03:56:21;7.93;;;7.13;;
32108;SDS011;18624;50.042;8.436;2023-04-08T03:58:47;7.80;;;7.00;;
32108;SDS011;18624;50.042;8.436;2023-04-08T04:01:15;9.55;;;7.10;;
32108;SDS011;18624;50.042;8.436;2023-04-08T04:03:42;8.50;;;7.05;;
32108;SDS011;18624;50.042;8.436;2023-04-08T04:06:08;8.40;;;7.22;;
32108;SDS011;18624;50.042;8.436;2023-04-08T04:08:35;8.07;;;6.40;;
32108;SDS011;18624;50.042;8.436;2023-04-08T04:11:01;7.82;;;6.30;;
32108;SDS011;18624;50.042;8.436;2023-04-08T04:13:28;7.75;;;6.95;;
32108;SDS011;18624;50.042;8.436;2023-04-08T04:15:54;7.45;;;6.53;;
32108;SDS011;18624;50.042;8.436;2023-04-08T04:18:21;7.40;;;6.10;;
32108;SDS011;18624;50.042;8.436;2023-04-08T04:20:48;7.65;;;6.88;;
32108;SDS011;18624;50.042;8.436;2023-04-08T04:23:14;6.45;;;5.78;;
32108;SDS011;18624;50.042;8.436;2023-04-08T04:25:41;9.60;;;7.07;;
32108;SDS011;18624;50.042;8.436;2023-04-08T04:28:07;8.82;;;7.35;;
32108;SDS011;18624;50.042;8.436;2023-04-08T04:30:35;7.88;;;7.03;;
32108;SDS011;18624;50.042;8.436;2023-04-08T04:33:05;8.88;;;7.20;;
32108;SDS011;18624;50.042;8.436;2023-04-08T04:35:32;8.45;;;7.43;;
32108;SDS011;18624;50.042;8.436;2023-04-08T04:37:59;8.20;;;7.10;;
32108;SDS011;18624;50.042;8.436;2023-04-08T04:40:25;7.93;;;7.00;;
32108;SDS011;18624;50.042;8.436;2023-04-08T04:42:52;10.00;;;7.60;;
32108;SDS011;18624;50.042;8.436;2023-04-08T04:45:18;9.85;;;7.32;;
32108;SDS011;18624;50.042;8.436;2023-04-08T04:47:45;9.38;;;7.40;;
32108;SDS011;18624;50.042;8.436;2023-04-08T04:50:11;9.43;;;7.75;;
32108;SDS011;18624;50.042;8.436;2023-04-08T04:52:38;9.70;;;8.38;;
32108;SDS011;18624;50.042;8.436;2023-04-08T04:55:04;10.68;;;7.65;;
32108;SDS011;18624;50.042;8.436;2023-04-08T04:57:31;9.00;;;6.85;;
32108;SDS011;18624;50.042;8.436;2023-04-08T04:59:58;9.20;;;8.00;;
32108;SDS011;18624;50.042;8.436;2023-04-08T05:02:24;7.57;;;6.78;;
32108;SDS011;18624;50.042;8.436;2023-04-08T05:04:51;8.32;;;7.25;;
32108;SDS011;18624;50.042;8.436;2023-04-08T05:07:21;10.07;;;8.15;;
32108;SDS011;18624;50.042;8.436;2023-04-08T05:09:47;9.30;;;8.20;;
32108;SDS011;18624;50.042;8.436;2023-04-08T05:12:13;8.85;;;7.85;;
32108;SDS011;18624;50.042;8.436;2023-04-08T05:17:15;6.90;;;5.30;;
32108;SDS011;18624;50.042;8.436;2023-04-08T05:19:42;7.53;;;5.97;;
32108;SDS011;18624;50.042;8.436;2023-04-08T05:22:08;8.77;;;5.88;;
32108;SDS011;18624;50.042;8.436;2023-04-08T05:24:35;7.53;;;5.65;;
32108;SDS011;18624;50.042;8.436;2023-04-08T05:27:01;6.68;;;5.38;;
32108;SDS011;18624;50.042;8.436;2023-04-08T05:29:28;6.55;;;5.03;;
32108;SDS011;18624;50.042;8.436;2023-04-08T05:31:54;7.82;;;7.03;;
32108;SDS011;18624;50.042;8.436;2023-04-08T05:34:21;6.95;;;5.70;;
32108;SDS011;18624;50.042;8.436;2023-04-08T05:36:48;6.68;;;5.47;;
32108;SDS011;18624;50.042;8.436;2023-04-08T05:39:18;6.25;;;4.93;;
32108;SDS011;18624;50.042;8.436;2023-04-08T05:41:45;8.88;;;6.47;;
32108;SDS011;18624;50.042;8.436;2023-04-08T05:44:12;7.43;;;5.00;;
32108;SDS011;18624;50.042;8.436;2023-04-08T05:46:39;10.27;;;6.82;;
32108;SDS011;18624;50.042;8.436;2023-04-08T05:49:05;8.98;;;6.50;;
32108;SDS011;18624;50.042;8.436;2023-04-08T05:51:32;10.35;;;8.77;;
32108;SDS011;18624;50.042;8.436;2023-04-08T05:53:58;9.82;;;8.73;;
32108;SDS011;18624;50.042;8.436;2023-04-08T05:56:25;9.90;;;7.50;;
32108;SDS011;18624;50.042;8.436;2023-04-08T05:58:51;7.32;;;6.10;;
32108;SDS011;18624;50.042;8.436;2023-04-08T06:01:18;9.45;;;7.88;;
32108;SDS011;18624;50.042;8.436;2023-04-08T06:03:44;7.82;;;6.82;;
32108;SDS011;18624;50.042;8.436;2023-04-08T06:06:11;9.88;;;7.57;;
32108;SDS011;18624;50.042;8.436;2023-04-08T06:08:37;9.23;;;7.65;;
32108;SDS011;18624;50.042;8.436;2023-04-08T06:11:04;10.98;;;8.27;;
32108;SDS011;18624;50.042;8.436;2023-04-08T06:13:30;9.93;;;8.20;;
32108;SDS011;18624;50.042;8.436;2023-04-08T06:15:57;14.02;;;11.18;;
32108;SDS011;18624;50.042;8.436;2023-04-08T06:18:24;14.77;;;11.38;;
32108;SDS011;18624;50.042;8.436;2023-04-08T06:20:50;15.50;;;11.52;;
32108;SDS011;18624;50.042;8.436;2023-04-08T06:23:17;11.07;;;8.63;;
32108;SDS011;18624;50.042;8.436;2023-04-08T06:25:43;9.40;;;7.72;;
32108;SDS011;18624;50.042;8.436;2023-04-08T06:28:10;9.05;;;7.57;;
32108;SDS011;18624;50.042;8.436;2023-04-08T06:30:36;10.38;;;8.18;;
32108;SDS011;18624;50.042;8.436;2023-04-08T06:33:03;10.02;;;7.93;;
32108;SDS011;18624;50.042;8.436;2023-04-08T06:35:29;10.02;;;7.88;;
32108;SDS011;18624;50.042;8.436;2023-04-08T06:37:57;9.52;;;7.53;;
32108;SDS011;18624;50.042;8.436;2023-04-08T06:40:24;9.88;;;7.47;;
32108;SDS011;18624;50.042;8.436;2023-04-08T06:42:50;10.88;;;8.32;;
32108;SDS011;18624;50.042;8.436;2023-04-08T06:45:31;10.50;;;8.00;;
32108;SDS011;18624;50.042;8.436;2023-04-08T06:47:58;12.02;;;9.20;;
32108;SDS011;18624;50.042;8.436;2023-04-08T06:50:24;11.27;;;8.95;;
32108;SDS011;18624;50.042;8.436;2023-04-08T06:52:51;9.70;;;7.80;;
32108;SDS011;18624;50.042;8.436;2023-04-08T06:55:17;9.95;;;8.52;;
32108;SDS011;18624;50.042;8.436;2023-04-08T06:57:43;11.32;;;8.65;;
32108;SDS011;18624;50.042;8.436;2023-04-08T07:00:10;12.57;;;8.85;;
32108;SDS011;18624;50.042;8.436;2023-04-08T07:02:37;10.27;;;8.15;;
32108;SDS011;18624;50.042;8.436;2023-04-08T07:05:03;10.25;;;8.43;;
32108;SDS011;18624;50.042;8.436;2023-04-08T07:07:30;12.23;;;9.07;;
32108;SDS011;18624;50.042;8.436;2023-04-08T07:09:57;10.93;;;9.40;;
32108;SDS011;18624;50.042;8.436;2023-04-08T07:12:23;12.27;;;10.32;;
32108;SDS011;18624;50.042;8.436;2023-04-08T07:14:50;11.50;;;9.57;;
32108;SDS011;18624;50.042;8.436;2023-04-08T07:17:18;12.82;;;10.70;;
32108;SDS011;18624;50.042;8.436;2023-04-08T07:19:44;11.73;;;10.30;;
32108;SDS011;18624;50.042;8.436;2023-04-08T07:22:10;12.43;;;10.27;;
32108;SDS011;18624;50.042;8.436;2023-04-08T07:24:37;12.38;;;11.07;;
32108;SDS011;18624;50.042;8.436;2023-04-08T07:27:03;12.63;;;10.80;;
32108;SDS011;18624;50.042;8.436;2023-04-08T07:29:30;11.13;;;9.63;;
32108;SDS011;18624;50.042;8.436;2023-04-08T07:31:56;12.77;;;10.57;;
32108;SDS011;18624;50.042;8.436;2023-04-08T07:34:23;15.43;;;12.00;;
32108;SDS011;18624;50.042;8.436;2023-04-08T07:36:49;13.70;;;11.82;;
32108;SDS011;18624;50.042;8.436;2023-04-08T07:39:16;13.43;;;11.55;;
32108;SDS011;18624;50.042;8.436;2023-04-08T07:41:42;12.63;;;9.38;;
32108;SDS011;18624;50.042;8.436;2023-04-08T07:44:09;11.25;;;9.73;;
32108;SDS011;18624;50.042;8.436;2023-04-08T07:46:36;13.38;;;11.23;;
32108;SDS011;18624;50.042;8.436;2023-04-08T07:49:03;15.20;;;12.55;;
32108;SDS011;18624;50.042;8.436;2023-04-08T07:51:30;14.15;;;12.13;;
32108;SDS011;18624;50.042;8.436;2023-04-08T07:53:56;15.55;;;12.70;;
32108;SDS011;18624;50.042;8.436;2023-04-08T07:56:23;13.55;;;12.15;;
32108;SDS011;18624;50.042;8.436;2023-04-08T07:58:49;12.80;;;10.82;;
32108;SDS011;18624;50.042;8.436;2023-04-08T08:01:19;14.75;;;11.77;;
32108;SDS011;18624;50.042;8.436;2023-04-08T08:03:50;16.13;;;12.32;;
32108;SDS011;18624;50.042;8.436;2023-04-08T08:06:19;16.50;;;12.35;;
32108;SDS011;18624;50.042;8.436;2023-04-08T08:08:45;13.45;;;11.60;;
32108;SDS011;18624;50.042;8.436;2023-04-08T08:11:12;13.95;;;11.77;;
32108;SDS011;18624;50.042;8.436;2023-04-08T08:13:38;13.27;;;11.43;;
32108;SDS011;18624;50.042;8.436;2023-04-08T08:16:05;16.35;;;12.52;;
32108;SDS011;18624;50.042;8.436;2023-04-08T08:18:34;14.85;;;12.32;;
32108;SDS011;18624;50.042;8.436;2023-04-08T08:21:01;17.02;;;13.50;;
32108;SDS011;18624;50.042;8.436;2023-04-08T08:23:28;16.55;;;12.40;;
32108;SDS011;18624;50.042;8.436;2023-04-08T08:25:58;13.82;;;11.88;;
32108;SDS011;18624;50.042;8.436;2023-04-08T08:28:28;15.13;;;12.23;;
32108;SDS011;18624;50.042;8.436;2023-04-08T08:30:54;15.25;;;12.43;;
32108;SDS011;18624;50.042;8.436;2023-04-08T08:33:21;14.70;;;12.77;;
32108;SDS011;18624;50.042;8.436;2023-04-08T08:35:48;13.88;;;11.50;;
32108;SDS011;18624;50.042;8.436;2023-04-08T08:38:14;12.63;;;11.10;;
32108;SDS011;18624;50.042;8.436;2023-04-08T08:40:43;13.95;;;11.50;;
32108;SDS011;18624;50.042;8.436;2023-04-08T08:43:10;17.95;;;12.63;;
32108;SDS011;18624;50.042;8.436;2023-04-08T08:45:40;13.75;;;11.30;;
32108;SDS011;18624;50.042;8.436;2023-04-08T08:48:07;13.85;;;12.35;;
32108;SDS011;18624;50.042;8.436;2023-04-08T08:50:34;14.63;;;13.05;;
32108;SDS011;18624;50.042;8.436;2023-04-08T08:53:01;15.07;;;12.13;;
32108;SDS011;18624;50.042;8.436;2023-04-08T08:55:31;14.63;;;11.48;;
32108;SDS011;18624;50.042;8.436;2023-04-08T08:58:18;15.70;;;13.32;;
32108;SDS011;18624;50.042;8.436;2023-04-08T09:00:45;16.13;;;12.35;;
32108;SDS011;18624;50.042;8.436;2023-04-08T09:03:18;15.13;;;12.45;;
32108;SDS011;18624;50.042;8.436;2023-04-08T09:08:30;14.43;;;12.55;;
32108;SDS011;18624;50.042;8.436;2023-04-08T09:11:10;14.82;;;12.10;;
32108;SDS011;18624;50.042;8.436;2023-04-08T09:13:38;14.32;;;12.10;;
32108;SDS011;18624;50.042;8.436;2023-04-08T09:16:08;16.48;;;11.75;;
32108;SDS011;18624;50.042;8.436;2023-04-08T09:18:36;13.63;;;12.23;;
32108;SDS011;18624;50.042;8.436;2023-04-08T09:21:04;14.43;;;12.25;;
32108;SDS011;18624;50.042;8.436;2023-04-08T09:23:45;12.45;;;11.07;;
32108;SDS011;18624;50.042;8.436;2023-04-08T09:26:14;17.42;;;13.15;;
32108;SDS011;18624;50.042;8.436;2023-04-08T09:28:43;17.13;;;14.40;;
32108;SDS011;18624;50.042;8.436;2023-04-08T09:31:24;20.60;;;16.58;;
32108;SDS011;18624;50.042;8.436;2023-04-08T09:33:53;16.40;;;13.93;;
32108;SDS011;18624;50.042;8.436;2023-04-08T09:36:22;15.40;;;13.05;;
32108;SDS011;18624;50.042;8.436;2023-04-08T09:38:48;14.75;;;12.85;;
32108;SDS011;18624;50.042;8.436;2023-04-08T09:41:16;20.83;;;16.05;;
32108;SDS011;18624;50.042;8.436;2023-04-08T09:43:46;20.13;;;16.00;;
32108;SDS011;18624;50.042;8.436;2023-04-08T09:46:17;14.13;;;11.82;;
32108;SDS011;18624;50.042;8.436;2023-04-08T09:48:50;10.43;;;9.45;;
32108;SDS011;18624;50.042;8.436;2023-04-08T09:51:23;12.65;;;11.05;;
32108;SDS011;18624;50.042;8.436;2023-04-08T09:53:58;13.35;;;11.95;;
32108;SDS011;18624;50.042;8.436;2023-04-08T09:56:34;14.07;;;11.82;;
32108;SDS011;18624;50.042;8.436;2023-04-08T09:59:11;13.43;;;11.32;;
32108;SDS011;18624;50.042;8.436;2023-04-08T10:01:44;13.98;;;12.30;;
32108;SDS011;18624;50.042;8.436;2023-04-08T10:06:43;14.35;;;11.48;;
32108;SDS011;18624;50.042;8.436;2023-04-08T10:09:10;14.27;;;12.45;;
32108;SDS011;18624;50.042;8.436;2023-04-08T10:11:37;13.82;;;12.05;;
32108;SDS011;18624;50.042;8.436;2023-04-08T10:14:04;13.77;;;11.60;;
32108;SDS011;18624;50.042;8.436;2023-04-08T10:16:30;15.82;;;13.38;;
32108;SDS011;18624;50.042;8.436;2023-04-08T10:18:57;14.27;;;12.02;;
32108;SDS011;18624;50.042;8.436;2023-04-08T10:24:07;14.63;;;13.10;;
32108;SDS011;18624;50.042;8.436;2023-04-08T10:26:35;14.25;;;12.73;;
32108;SDS011;18624;50.042;8.436;2023-04-08T10:31:43;13.70;;;11.75;;
32108;SDS011;18624;50.042;8.436;2023-04-08T10:34:18;13.27;;;11.48;;
32108;SDS011;18624;50.042;8.436;2023-04-08T10:36:45;12.60;;;11.30;;
32108;SDS011;18624;50.042;8.436;2023-04-08T10:39:13;14.27;;;11.52;;
32108;SDS011;18624;50.042;8.436;2023-04-08T10:41:41;14.60;;;13.10;;
32108;SDS011;18624;50.042;8.436;2023-04-08T10:44:44;13.10;;;11.70;;
32108;SDS011;18624;50.042;8.436;2023-04-08T10:47:09;12.27;;;10.98;;
32108;SDS011;18624;50.042;8.436;2023-04-08T10:49:36;13.75;;;11.18;;
32108;SDS011;18624;50.042;8.436;2023-04-08T10:52:06;11.77;;;10.57;;
32108;SDS011;18624;50.042;8.436;2023-04-08T10:54:34;12.77;;;11.15;;
32108;SDS011;18624;50.042;8.436;2023-04-08T10:57:01;13.45;;;10.82;;
32108;SDS011;18624;50.042;8.436;2023-04-08T10:59:29;12.40;;;11.02;;
32108;SDS011;18624;50.042;8.436;2023-04-08T11:01:57;12.55;;;11.18;;
32108;SDS011;18624;50.042;8.436;2023-04-08T11:04:25;10.88;;;9.77;;
32108;SDS011;18624;50.042;8.436;2023-04-08T11:06:52;12.30;;;10.15;;
32108;SDS011;18624;50.042;8.436;2023-04-08T11:09:18;10.60;;;9.50;;
32108;SDS011;18624;50.042;8.436;2023-04-08T11:11:45;12.57;;;10.10;;
32108;SDS011;18624;50.042;8.436;2023-04-08T11:14:12;11.70;;;9.13;;
32108;SDS011;18624;50.042;8.436;2023-04-08T11:16:40;11.18;;;9.50;;
32108;SDS011;18624;50.042;8.436;2023-04-08T11:19:07;11.48;;;8.80;;
32108;SDS011;18624;50.042;8.436;2023-04-08T11:21:37;10.15;;;8.77;;
32108;SDS011;18624;50.042;8.436;2023-04-08T11:24:17;9.60;;;8.13;;
32108;SDS011;18624;50.042;8.436;2023-04-08T11:26:52;14.02;;;9.18;;
32108;SDS011;18624;50.042;8.436;2023-04-08T11:29:19;12.13;;;8.90;;
32108;SDS011;18624;50.042;8.436;2023-04-08T11:31:46;10.23;;;8.25;;
32108;SDS011;18624;50.042;8.436;2023-04-08T11:34:20;11.02;;;9.35;;
32108;SDS011;18624;50.042;8.436;2023-04-08T11:36:47;11.30;;;8.85;;
32108;SDS011;18624;50.042;8.436;2023-04-08T11:39:15;12.18;;;8.93;;
32108;SDS011;18624;50.042;8.436;2023-04-08T11:41:41;9.27;;;8.07;;
32108;SDS011;18624;50.042;8.436;2023-04-08T11:44:07;9.85;;;6.65;;
32108;SDS011;18624;50.042;8.436;2023-04-08T11:46:34;9.40;;;7.28;;
32108;SDS011;18624;50.042;8.436;2023-04-08T11:49:04;8.70;;;6.95;;
32108;SDS011;18624;50.042;8.436;2023-04-08T11:51:33;9.50;;;6.03;;
32108;SDS011;18624;50.042;8.436;2023-04-08T11:54:04;7.50;;;6.75;;
32108;SDS011;18624;50.042;8.436;2023-04-08T11:56:43;6.93;;;6.13;;
32108;SDS011;18624;50.042;8.436;2023-04-08T11:59:11;8.50;;;6.90;;
32108;SDS011;18624;50.042;8.436;2023-04-08T12:01:37;7.20;;;5.72;;
32108;SDS011;18624;50.042;8.436;2023-04-08T12:04:03;8.70;;;5.55;;
32108;SDS011;18624;50.042;8.436;2023-04-08T12:06:32;9.73;;;5.85;;
32108;SDS011;18624;50.042;8.436;2023-04-08T12:08:59;6.38;;;5.30;;
32108;SDS011;18624;50.042;8.436;2023-04-08T12:11:25;10.32;;;5.40;;
32108;SDS011;18624;50.042;8.436;2023-04-08T12:13:51;7.38;;;5.72;;
32108;SDS011;18624;50.042;8.436;2023-04-08T12:16:19;7.47;;;5.07;;
32108;SDS011;18624;50.042;8.436;2023-04-08T12:18:45;5.50;;;4.93;;
32108;SDS011;18624;50.042;8.436;2023-04-08T12:21:12;7.35;;;5.05;;
32108;SDS011;18624;50.042;8.436;2023-04-08T12:23:39;6.03;;;5.10;;
32108;SDS011;18624;50.042;8.436;2023-04-08T12:26:05;6.43;;;4.82;;
32108;SDS011;18624;50.042;8.436;2023-04-08T12:28:33;6.20;;;4.72;;
32108;SDS011;18624;50.042;8.436;2023-04-08T12:31:00;7.05;;;5.05;;
32108;SDS011;18624;50.042;8.436;2023-04-08T12:33:27;6.68;;;5.10;;
32108;SDS011;18624;50.042;8.436;2023-04-08T12:35:53;7.03;;;5.38;;
32108;SDS011;18624;50.042;8.436;2023-04-08T12:38:20;8.05;;;5.55;;
32108;SDS011;18624;50.042;8.436;2023-04-08T12:40:46;7.80;;;5.30;;
32108;SDS011;18624;50.042;8.436;2023-04-08T12:43:15;9.68;;;5.90;;
32108;SDS011;18624;50.042;8.436;2023-04-08T12:45:41;5.80;;;5.18;;
32108;SDS011;18624;50.042;8.436;2023-04-08T12:48:08;7.13;;;5.28;;
32108;SDS011;18624;50.042;8.436;2023-04-08T12:50:35;11.43;;;6.15;;
32108;SDS011;18624;50.042;8.436;2023-04-08T12:53:01;6.47;;;4.80;;
32108;SDS011;18624;50.042;8.436;2023-04-08T12:55:28;6.30;;;5.07;;
32108;SDS011;18624;50.042;8.436;2023-04-08T12:57:54;6.07;;;5.25;;
32108;SDS011;18624;50.042;8.436;2023-04-08T13:00:21;7.18;;;4.93;;
32108;SDS011;18624;50.042;8.436;2023-04-08T13:02:48;6.45;;;4.90;;
32108;SDS011;18624;50.042;8.436;2023-04-08T13:05:14;5.90;;;5.28;;
32108;SDS011;18624;50.042;8.436;2023-04-08T13:07:42;6.57;;;5.10;;
32108;SDS011;18624;50.042;8.436;2023-04-08T13:10:08;4.60;;;4.10;;
32108;SDS011;18624;50.042;8.436;2023-04-08T13:12:35;5.78;;;4.38;;
32108;SDS011;18624;50.042;8.436;2023-04-08T13:15:05;6.50;;;5.80;;
32108;SDS011;18624;50.042;8.436;2023-04-08T13:17:32;6.63;;;5.53;;
32108;SDS011;18624;50.042;8.436;2023-04-08T13:19:59;8.52;;;5.32;;
32108;SDS011;18624;50.042;8.436;2023-04-08T13:22:25;7.93;;;5.88;;
32108;SDS011;18624;50.042;8.436;2023-04-08T13:24:52;7.88;;;6.10;;
32108;SDS011;18624;50.042;8.436;2023-04-08T13:27:18;6.28;;;4.90;;
32108;SDS011;18624;50.042;8.436;2023-04-08T13:29:45;6.72;;;5.70;;
32108;SDS011;18624;50.042;8.436;2023-04-08T13:32:11;7.50;;;6.53;;
32108;SDS011;18624;50.042;8.436;2023-04-08T13:34:37;8.52;;;6.47;;
32108;SDS011;18624;50.042;8.436;2023-04-08T13:37:04;7.28;;;6.43;;
32108;SDS011;18624;50.042;8.436;2023-04-08T13:39:30;14.88;;;6.40;;
32108;SDS011;18624;50.042;8.436;2023-04-08T13:41:57;6.88;;;6.05;;
32108;SDS011;18624;50.042;8.436;2023-04-08T13:44:23;6.60;;;5.63;;
32108;SDS011;18624;50.042;8.436;2023-04-08T13:46:50;12.15;;;6.80;;
32108;SDS011;18624;50.042;8.436;2023-04-08T13:49:17;8.65;;;6.93;;
32108;SDS011;18624;50.042;8.436;2023-04-08T13:51:43;9.25;;;5.95;;
32108;SDS011;18624;50.042;8.436;2023-04-08T13:54:10;8.27;;;6.05;;
32108;SDS011;18624;50.042;8.436;2023-04-08T13:56:36;7.00;;;5.50;;
32108;SDS011;18624;50.042;8.436;2023-04-08T13:59:02;8.55;;;6.70;;
32108;SDS011;18624;50.042;8.436;2023-04-08T14:01:29;8.52;;;5.93;;
32108;SDS011;18624;50.042;8.436;2023-04-08T14:03:55;8.05;;;6.55;;
32108;SDS011;18624;50.042;8.436;2023-04-08T14:06:22;7.05;;;6.35;;
32108;SDS011;18624;50.042;8.436;2023-04-08T14:08:48;6.63;;;5.55;;
32108;SDS011;18624;50.042;8.436;2023-04-08T14:11:16;6.68;;;5.65;;
32108;SDS011;18624;50.042;8.436;2023-04-08T14:13:42;6.88;;;5.90;;
32108;SDS011;18624;50.042;8.436;2023-04-08T14:16:08;7.30;;;6.20;;
32108;SDS011;18624;50.042;8.436;2023-04-08T14:18:35;6.40;;;5.80;;
32108;SDS011;18624;50.042;8.436;2023-04-08T14:21:02;9.70;;;7.05;;
32108;SDS011;18624;50.042;8.436;2023-04-08T14:23:30;8.10;;;6.75;;
32108;SDS011;18624;50.042;8.436;2023-04-08T14:25:56;7.40;;;6.28;;
32108;SDS011;18624;50.042;8.436;2023-04-08T14:28:23;8.77;;;7.40;;
32108;SDS011;18624;50.042;8.436;2023-04-08T14:30:49;9.05;;;6.63;;
32108;SDS011;18624;50.042;8.436;2023-04-08T14:33:16;8.68;;;7.85;;
32108;SDS011;18624;50.042;8.436;2023-04-08T14:35:42;7.95;;;6.80;;
32108;SDS011;18624;50.042;8.436;2023-04-08T14:38:09;7.45;;;6.25;;
32108;SDS011;18624;50.042;8.436;2023-04-08T14:40:35;8.75;;;5.63;;
32108;SDS011;18624;50.042;8.436;2023-04-08T14:43:03;6.63;;;5.45;;
32108;SDS011;18624;50.042;8.436;2023-04-08T14:45:29;6.88;;;5.55;;
32108;SDS011;18624;50.042;8.436;2023-04-08T14:47:56;6.25;;;5.65;;
32108;SDS011;18624;50.042;8.436;2023-04-08T14:50:23;8.73;;;6.25;;
32108;SDS011;18624;50.042;8.436;2023-04-08T14:52:49;7.15;;;5.85;;
32108;SDS011;18624;50.042;8.436;2023-04-08T14:55:15;5.97;;;5.38;;
32108;SDS011;18624;50.042;8.436;2023-04-08T14:57:42;6.32;;;5.72;;
32108;SDS011;18624;50.042;8.436;2023-04-08T15:00:09;6.28;;;5.63;;
32108;SDS011;18624;50.042;8.436;2023-04-08T15:02:35;5.80;;;5.05;;